Time;durP1;ratioP1;P1;durP2;ratioP2;P2;SDS_P1;SDS_P2;PMS_P1;PMS_P2;Temp;Humidity;BMP_temperature;BMP_pressure;BME280_temperature;BME280_humidity;BME280_pressure;Samples;Min_cycle;Max_cycle;Signal;HPM_P1;HPM_P2
2023/07/05 00:02:04;;;;;;;13.60;3.78;;;;;;;;;;4881005;29;20134;-71
2023/07/05 00:04:30;;;;;;;9.32;3.20;;;;;;;;;;4882464;29;20130;-72
2023/07/05 00:06:56;;;;;;;12.10;3.65;;;;;;;;;;4884788;29;20078;-72
2023/07/05 00:09:22;;;;;;;14.10;3.78;;;;;;;;;;4881438;29;20130;-71
2023/07/05 00:11:48;;;;;;;14.10;4.30;;;;;;;;;;4899988;29;20054;-72
2023/07/05 00:14:14;;;;;;;14.32;4.82;;;;;;;;;;4885767;29;20055;-72
2023/07/05 00:16:40;;;;;;;13.02;4.55;;;;;;;;;;4865701;29;20047;-72
2023/07/05 00:19:07;;;;;;;18.83;5.57;;;;;;;;;;4870449;29;20071;-72
2023/07/05 00:21:34;;;;;;;21.48;6.15;;;;;;;;;;4881407;29;20155;-71
2023/07/05 00:24:00;;;;;;;15.63;5.47;;;;;;;;;;4880393;29;20117;-72
2023/07/05 00:26:26;;;;;;;12.35;5.05;;;;;;;;;;4882341;29;20048;-72
2023/07/05 00:28:52;;;;;;;15.00;5.47;;;;;;;;;;4899191;29;20098;-72
2023/07/05 00:31:18;;;;;;;11.68;5.25;;;;;;;;;;4884521;29;20048;-72
2023/07/05 00:33:45;;;;;;;19.98;5.22;;;;;;;;;;4880655;29;20135;-72
2023/07/05 00:36:11;;;;;;;12.57;5.45;;;;;;;;;;4897695;29;20048;-72
2023/07/05 00:38:37;;;;;;;12.00;4.78;;;;;;;;;;4895150;29;21328;-72
2023/07/05 00:41:03;;;;;;;17.25;5.57;;;;;;;;;;4866097;29;20142;-72
2023/07/05 00:43:29;;;;;;;8.77;4.53;;;;;;;;;;4899058;29;20131;-72
2023/07/05 00:45:56;;;;;;;13.55;4.40;;;;;;;;;;4883194;29;20044;-72
2023/07/05 00:48:29;;;;;;;11.85;4.53;;;;;;;;;;4894527;29;20040;-71
2023/07/05 00:50:56;;;;;;;16.05;4.80;;;;;;;;;;4884229;29;22050;-72
2023/07/05 00:53:22;;;;;;;12.93;4.45;;;;;;;;;;4883181;29;20083;-71
2023/07/05 00:55:50;;;;;;;8.95;4.68;;;;;;;;;;4898964;29;20480;-72
2023/07/05 00:58:17;;;;;;;10.77;4.25;;;;;;;;;;4897191;29;20043;-72
2023/07/05 01:00:44;;;;;;;15.00;4.90;;;;;;;;;;4900981;29;20044;-72
2023/07/05 01:03:13;;;;;;;11.50;4.57;;;;;;;;;;4883898;29;20051;-73
2023/07/05 01:05:39;;;;;;;10.32;4.03;;;;;;;;;;4900026;29;20272;-72
2023/07/05 01:08:06;;;;;;;12.90;4.75;;;;;;;;;;4868760;29;20047;-72
2023/07/05 01:10:32;;;;;;;11.55;4.38;;;;;;;;;;4894459;29;20058;-72
2023/07/05 01:13:19;;;;;;;10.88;4.57;;;;;;;;;;4914048;29;20044;-72
2023/07/05 01:15:50;;;;;;;11.90;4.90;;;;;;;;;;4914303;29;20083;-71
2023/07/05 01:18:34;;;;;;;14.95;4.70;;;;;;;;;;4900871;29;20055;-73
2023/07/05 01:21:01;;;;;;;;;;;;;;;;;;4901162;29;20052;-72
2023/07/05 01:23:43;;;;;;;11.60;4.45;;;;;;;;;;4899535;29;19982;-73
2023/07/05 01:26:27;;;;;;;15.80;4.72;;;;;;;;;;4881562;29;20044;-72
2023/07/05 01:29:03;;;;;;;11.10;5.22;;;;;;;;;;4881709;29;21359;-72
2023/07/05 01:32:07;;;;;;;12.13;5.18;;;;;;;;;;4879524;29;20087;-73
2023/07/05 01:34:39;;;;;;;10.68;4.80;;;;;;;;;;4824524;29;20052;-73
2023/07/05 01:37:06;;;;;;;11.13;4.82;;;;;;;;;;4824715;29;20080;-72
2023/07/05 01:39:32;;;;;;;11.55;5.40;;;;;;;;;;4870501;29;20079;-72
2023/07/05 01:41:59;;;;;;;13.23;5.20;;;;;;;;;;4886336;29;20182;-73
2023/07/05 01:44:25;;;;;;;11.93;4.97;;;;;;;;;;4883687;29;20126;-73
2023/07/05 01:47:02;;;;;;;10.20;5.00;;;;;;;;;;4884673;29;20043;-72
2023/07/05 01:49:28;;;;;;;15.23;6.38;;;;;;;;;;4892843;29;20044;-73
2023/07/05 01:51:54;;;;;;;11.27;5.30;;;;;;;;;;4881305;29;20055;-72
2023/07/05 01:54:27;;;;;;;11.80;5.57;;;;;;;;;;4879551;29;20044;-73
2023/07/05 01:57:09;;;;;;;14.17;6.07;;;;;;;;;;4901222;29;20079;-72
2023/07/05 01:59:38;;;;;;;12.60;6.97;;;;;;;;;;4880013;29;20048;-73
2023/07/05 02:02:05;;;;;;;12.45;6.45;;;;;;;;;;4882467;29;20048;-72
2023/07/05 02:04:35;;;;;;;15.85;6.55;;;;;;;;;;4904121;29;20056;-72
2023/07/05 02:07:01;;;;;;;17.65;7.22;;;;;;;;;;4909921;29;20044;-74
2023/07/05 02:09:27;;;;;;;16.20;7.53;;;;;;;;;;4895620;29;24194;-74
2023/07/05 02:11:53;;;;;;;12.52;6.95;;;;;;;;;;4913816;29;20123;-74
2023/07/05 02:14:20;;;;;;;21.95;8.35;;;;;;;;;;4895324;29;20110;-75
2023/07/05 02:16:46;;;;;;;18.42;7.25;;;;;;;;;;4898440;29;20871;-74
2023/07/05 02:19:12;;;;;;;15.60;6.80;;;;;;;;;;4897966;29;20130;-74
2023/07/05 02:21:38;;;;;;;22.35;7.95;;;;;;;;;;4916994;29;20048;-74
2023/07/05 02:24:04;;;;;;;16.05;6.80;;;;;;;;;;4907153;29;20044;-74
2023/07/05 02:26:33;;;;;;;21.95;8.05;;;;;;;;;;4891683;29;20539;-74
2023/07/05 02:29:00;;;;;;;21.17;8.05;;;;;;;;;;4886798;29;20122;-73
2023/07/05 02:31:26;;;;;;;27.08;9.07;;;;;;;;;;4865526;29;20768;-74
2023/07/05 02:33:52;;;;;;;26.00;7.93;;;;;;;;;;4883463;29;20107;-73
2023/07/05 02:36:18;;;;;;;26.65;8.40;;;;;;;;;;4881962;29;20067;-73
2023/07/05 02:38:44;;;;;;;22.05;8.13;;;;;;;;;;4903880;29;20066;-74
2023/07/05 02:41:10;;;;;;;18.95;8.95;;;;;;;;;;4876105;29;20059;-74
2023/07/05 02:43:36;;;;;;;20.17;9.85;;;;;;;;;;4883595;29;20080;-73
2023/07/05 02:46:03;;;;;;;24.30;9.63;;;;;;;;;;4879117;29;20163;-73
2023/07/05 02:48:29;;;;;;;29.50;10.05;;;;;;;;;;4882772;29;20056;-74
2023/07/05 02:50:55;;;;;;;21.58;9.30;;;;;;;;;;4884525;29;20077;-74
2023/07/05 02:53:21;;;;;;;25.83;10.85;;;;;;;;;;4898798;29;20044;-74
2023/07/05 02:55:47;;;;;;;25.15;10.70;;;;;;;;;;4881809;29;20051;-74
2023/07/05 02:58:13;;;;;;;26.67;11.40;;;;;;;;;;4880070;29;20106;-74
2023/07/05 03:00:39;;;;;;;34.28;13.48;;;;;;;;;;4898032;29;20773;-74
2023/07/05 03:03:05;;;;;;;31.88;12.02;;;;;;;;;;4867438;29;20130;-73
2023/07/05 03:05:31;;;;;;;22.13;11.95;;;;;;;;;;4867315;29;20051;-74
2023/07/05 03:07:57;;;;;;;22.02;12.20;;;;;;;;;;4890571;29;20396;-75
2023/07/05 03:10:23;;;;;;;29.35;13.32;;;;;;;;;;4885092;29;20054;-75
2023/07/05 03:12:49;;;;;;;28.00;12.98;;;;;;;;;;4884661;29;20058;-74
2023/07/05 03:15:16;;;;;;;33.83;14.07;;;;;;;;;;4868226;29;20059;-74
2023/07/05 03:17:42;;;;;;;25.90;13.85;;;;;;;;;;4886408;29;20156;-74
2023/07/05 03:20:08;;;;;;;41.40;16.48;;;;;;;;;;4882370;29;20600;-74
2023/07/05 03:22:34;;;;;;;41.40;14.63;;;;;;;;;;4903201;29;20046;-74
2023/07/05 03:25:00;;;;;;;36.83;16.15;;;;;;;;;;4886993;29;20130;-75
2023/07/05 03:27:28;;;;;;;27.77;13.68;;;;;;;;;;4870864;29;20099;-74
2023/07/05 03:29:55;;;;;;;30.80;13.95;;;;;;;;;;4886265;29;20150;-74
2023/07/05 03:32:22;;;;;;;23.15;13.52;;;;;;;;;;4902926;29;20060;-74
2023/07/05 03:34:48;;;;;;;22.10;13.80;;;;;;;;;;4871505;29;20068;-74
2023/07/05 03:37:14;;;;;;;29.08;13.27;;;;;;;;;;4905712;29;20048;-73
2023/07/05 03:39:40;;;;;;;29.23;14.48;;;;;;;;;;4900439;29;20139;-74
2023/07/05 03:42:06;;;;;;;25.00;14.02;;;;;;;;;;4902921;29;20075;-73
2023/07/05 03:44:32;;;;;;;26.83;14.48;;;;;;;;;;4893806;29;20179;-72
2023/07/05 03:46:58;;;;;;;43.88;17.65;;;;;;;;;;4900930;29;20076;-74
2023/07/05 03:49:24;;;;;;;32.65;16.40;;;;;;;;;;4887067;29;20127;-73
2023/07/05 03:51:50;;;;;;;29.27;17.55;;;;;;;;;;4891131;29;20050;-73
2023/07/05 03:54:16;;;;;;;32.90;16.73;;;;;;;;;;4883708;29;20071;-73
2023/07/05 03:56:42;;;;;;;43.00;18.77;;;;;;;;;;4882836;29;20047;-74
2023/07/05 03:59:09;;;;;;;35.88;16.65;;;;;;;;;;4870575;29;20054;-74
2023/07/05 04:01:35;;;;;;;28.08;16.73;;;;;;;;;;4868184;29;20051;-74
2023/07/05 04:04:02;;;;;;;33.58;16.45;;;;;;;;;;4865199;29;20059;-73
2023/07/05 04:06:30;;;;;;;32.83;17.77;;;;;;;;;;4873248;29;20155;-73
2023/07/05 04:08:56;;;;;;;26.20;16.80;;;;;;;;;;4901571;29;21902;-74
2023/07/05 04:11:22;;;;;;;26.08;17.30;;;;;;;;;;4883905;29;20079;-73
2023/07/05 04:13:49;;;;;;;33.42;18.65;;;;;;;;;;4878351;29;20047;-73
2023/07/05 04:16:17;;;;;;;27.88;18.50;;;;;;;;;;4883732;29;20103;-74
2023/07/05 04:18:43;;;;;;;37.85;20.38;;;;;;;;;;4890997;29;20082;-76
2023/07/05 04:21:10;;;;;;;41.67;21.05;;;;;;;;;;4887227;29;20112;-75
2023/07/05 04:23:37;;;;;;;39.88;22.40;;;;;;;;;;4885181;29;20063;-75
2023/07/05 04:26:04;;;;;;;34.03;19.92;;;;;;;;;;4892622;29;20040;-74
2023/07/05 04:28:31;;;;;;;34.60;19.67;;;;;;;;;;4871711;29;20055;-75
2023/07/05 04:30:57;;;;;;;29.27;20.27;;;;;;;;;;4890600;29;20048;-75
2023/07/05 04:33:24;;;;;;;25.42;17.80;;;;;;;;;;4894824;29;20072;-75
2023/07/05 04:35:51;;;;;;;27.73;17.77;;;;;;;;;;4898868;29;20134;-75
2023/07/05 04:38:17;;;;;;;23.95;17.45;;;;;;;;;;4894798;29;20043;-74
2023/07/05 04:40:43;;;;;;;18.92;15.05;;;;;;;;;;4870837;29;20048;-74
2023/07/05 04:43:09;;;;;;;23.67;16.60;;;;;;;;;;4875201;29;20044;-76
2023/07/05 04:45:35;;;;;;;25.95;17.08;;;;;;;;;;4895123;29;20054;-75
2023/07/05 04:48:02;;;;;;;20.77;15.43;;;;;;;;;;4883483;29;20477;-77
2023/07/05 04:50:28;;;;;;;22.13;16.70;;;;;;;;;;4879015;29;22034;-75
2023/07/05 04:52:55;;;;;;;18.55;13.52;;;;;;;;;;4892638;29;20054;-75
2023/07/05 04:55:21;;;;;;;19.15;14.82;;;;;;;;;;4893197;29;20032;-76
2023/07/05 04:57:47;;;;;;;21.40;14.10;;;;;;;;;;4881918;29;20095;-77
2023/07/05 05:00:13;;;;;;;18.40;13.65;;;;;;;;;;4885750;29;20079;-77
2023/07/05 05:02:39;;;;;;;18.83;13.60;;;;;;;;;;4887654;29;20201;-77
2023/07/05 05:05:06;;;;;;;14.95;12.90;;;;;;;;;;4889023;29;20137;-77
2023/07/05 05:07:33;;;;;;;17.92;12.25;;;;;;;;;;4892078;29;20047;-77
2023/07/05 05:10:00;;;;;;;13.45;10.43;;;;;;;;;;4900180;29;20047;-76
2023/07/05 05:12:26;;;;;;;21.95;9.70;;;;;;;;;;4901004;29;21066;-75
2023/07/05 05:14:52;;;;;;;12.32;8.70;;;;;;;;;;4895998;29;20050;-75
2023/07/05 05:17:18;;;;;;;13.55;9.77;;;;;;;;;;4880169;29;20140;-76
2023/07/05 05:19:44;;;;;;;11.82;8.65;;;;;;;;;;4907992;29;20452;-76
2023/07/05 05:22:11;;;;;;;10.52;7.90;;;;;;;;;;4886582;29;20044;-76
2023/07/05 05:24:37;;;;;;;11.63;7.75;;;;;;;;;;4888221;29;20052;-76
2023/07/05 05:27:03;;;;;;;11.15;7.57;;;;;;;;;;4873626;29;20040;-76
2023/07/05 05:29:30;;;;;;;12.82;7.97;;;;;;;;;;4910142;29;20135;-76
2023/07/05 05:31:56;;;;;;;10.93;7.38;;;;;;;;;;4890156;29;20142;-77
2023/07/05 05:34:25;;;;;;;8.85;6.75;;;;;;;;;;4893520;29;20064;-76
2023/07/05 05:36:51;;;;;;;10.75;6.50;;;;;;;;;;4915775;29;20051;-75
2023/07/05 05:39:17;;;;;;;12.40;6.28;;;;;;;;;;4909139;29;20059;-76
2023/07/05 05:41:43;;;;;;;6.70;4.25;;;;;;;;;;4889699;29;20035;-77
2023/07/05 05:44:09;;;;;;;4.38;2.92;;;;;;;;;;4873628;29;20708;-76
2023/07/05 05:46:35;;;;;;;4.55;3.60;;;;;;;;;;4886074;29;20103;-77
2023/07/05 05:49:01;;;;;;;7.22;3.97;;;;;;;;;;4886676;29;20036;-77
2023/07/05 05:51:27;;;;;;;4.97;4.20;;;;;;;;;;4895253;29;20043;-77
2023/07/05 05:53:53;;;;;;;8.45;4.38;;;;;;;;;;4888671;29;20094;-77
2023/07/05 05:56:19;;;;;;;7.15;4.20;;;;;;;;;;4886301;29;20769;-77
2023/07/05 05:58:46;;;;;;;4.80;3.60;;;;;;;;;;4890998;29;20226;-77
2023/07/05 06:01:12;;;;;;;6.25;4.03;;;;;;;;;;4888234;29;20095;-77
2023/07/05 06:03:38;;;;;;;4.43;3.50;;;;;;;;;;4906561;29;20130;-76
2023/07/05 06:06:05;;;;;;;6.05;3.95;;;;;;;;;;4892213;29;20094;-76
2023/07/05 06:08:32;;;;;;;4.13;3.58;;;;;;;;;;4908760;29;20104;-76
2023/07/05 06:10:59;;;;;;;5.45;3.88;;;;;;;;;;4892065;29;20051;-76
2023/07/05 06:13:26;;;;;;;8.98;3.95;;;;;;;;;;4876418;29;20195;-77
2023/07/05 06:16:00;;;;;;;7.25;4.40;;;;;;;;;;4889088;29;20485;-76
2023/07/05 06:18:27;;;;;;;5.53;4.03;;;;;;;;;;4893709;29;20158;-78
2023/07/05 06:20:53;;;;;;;3.92;3.38;;;;;;;;;;4886591;29;20055;-76
2023/07/05 06:23:19;;;;;;;9.02;4.55;;;;;;;;;;4895496;29;20040;-74
2023/07/05 06:25:49;;;;;;;8.65;4.03;;;;;;;;;;4880005;29;20082;-74
2023/07/05 06:28:16;;;;;;;7.95;4.40;;;;;;;;;;4898285;29;20885;-75
2023/07/05 06:30:43;;;;;;;6.68;3.92;;;;;;;;;;4915333;29;20055;-74
2023/07/05 06:33:09;;;;;;;8.73;3.60;;;;;;;;;;4900054;29;20474;-74
2023/07/05 06:35:35;;;;;;;5.03;3.63;;;;;;;;;;4904367;29;20102;-75
2023/07/05 06:38:01;;;;;;;6.03;4.00;;;;;;;;;;4888789;29;20074;-75
2023/07/05 06:40:27;;;;;;;4.25;3.30;;;;;;;;;;4895299;29;20086;-74
2023/07/05 06:42:53;;;;;;;5.82;3.90;;;;;;;;;;4868386;29;20089;-75
2023/07/05 06:45:19;;;;;;;5.38;3.22;;;;;;;;;;4881668;29;20067;-75
2023/07/05 06:47:46;;;;;;;5.63;3.45;;;;;;;;;;4893568;29;20054;-75
2023/07/05 06:50:12;;;;;;;5.97;4.40;;;;;;;;;;4895570;29;20043;-76
2023/07/05 06:52:39;;;;;;;5.35;3.42;;;;;;;;;;4914459;29;20685;-76
2023/07/05 06:55:06;;;;;;;7.45;3.65;;;;;;;;;;4910683;29;20047;-76
2023/07/05 06:57:32;;;;;;;7.00;3.85;;;;;;;;;;4914196;29;20079;-75
2023/07/05 06:59:58;;;;;;;4.65;3.53;;;;;;;;;;4882907;29;20063;-76
2023/07/05 07:02:25;;;;;;;4.72;3.55;;;;;;;;;;4896882;29;20044;-75
2023/07/05 07:04:51;;;;;;;4.70;3.78;;;;;;;;;;4917235;29;20121;-75
2023/07/05 07:07:17;;;;;;;6.55;3.45;;;;;;;;;;4900634;29;20473;-75
2023/07/05 07:09:43;;;;;;;4.90;3.30;;;;;;;;;;4890561;29;20159;-75
2023/07/05 07:12:09;;;;;;;4.78;3.20;;;;;;;;;;4916367;29;20946;-76
2023/07/05 07:14:35;;;;;;;4.13;3.30;;;;;;;;;;4898039;29;21117;-76
2023/07/05 07:17:02;;;;;;;6.88;3.00;;;;;;;;;;4897322;29;20052;-76
2023/07/05 07:19:28;;;;;;;5.75;3.10;;;;;;;;;;4897378;29;20059;-76
2023/07/05 07:21:54;;;;;;;5.85;3.78;;;;;;;;;;4896947;29;21059;-76
2023/07/05 07:24:20;;;;;;;5.68;2.90;;;;;;;;;;4898437;29;20055;-75
2023/07/05 07:26:46;;;;;;;6.05;3.20;;;;;;;;;;4882852;29;20050;-75
2023/07/05 07:29:12;;;;;;;5.05;3.05;;;;;;;;;;4915981;29;20414;-76
2023/07/05 07:31:38;;;;;;;4.07;2.88;;;;;;;;;;4897709;29;20724;-75
2023/07/05 07:34:05;;;;;;;4.13;3.30;;;;;;;;;;4913468;29;20060;-76
2023/07/05 07:36:32;;;;;;;6.72;3.42;;;;;;;;;;4904599;29;20424;-76
2023/07/05 07:38:58;;;;;;;7.90;3.40;;;;;;;;;;4917296;29;20155;-75
2023/07/05 07:41:26;;;;;;;5.05;3.40;;;;;;;;;;4898827;29;20055;-76
2023/07/05 07:43:59;;;;;;;5.20;2.63;;;;;;;;;;4898009;29;20138;-75
2023/07/05 07:46:26;;;;;;;8.27;3.33;;;;;;;;;;4897399;29;20048;-76
2023/07/05 07:48:53;;;;;;;7.93;3.15;;;;;;;;;;4898746;29;20315;-76
2023/07/05 07:51:20;;;;;;;6.40;3.03;;;;;;;;;;4914239;29;20589;-76
2023/07/05 07:53:46;;;;;;;7.28;2.63;;;;;;;;;;4917181;29;20047;-76
2023/07/05 07:56:16;;;;;;;4.10;2.90;;;;;;;;;;4882858;29;20051;-77
2023/07/05 07:58:44;;;;;;;6.53;3.22;;;;;;;;;;4894916;29;20059;-75
2023/07/05 08:01:14;;;;;;;4.05;3.00;;;;;;;;;;4912594;29;20087;-75
2023/07/05 08:03:40;;;;;;;4.15;3.05;;;;;;;;;;4915154;29;20044;-74
2023/07/05 08:06:06;;;;;;;5.30;3.03;;;;;;;;;;4916258;29;20039;-74
2023/07/05 08:08:33;;;;;;;4.30;2.90;;;;;;;;;;4898957;29;20111;-76
2023/07/05 08:10:59;;;;;;;4.28;2.90;;;;;;;;;;4895714;29;20099;-76
2023/07/05 08:13:25;;;;;;;4.72;3.13;;;;;;;;;;4914375;29;20518;-76
2023/07/05 08:15:51;;;;;;;7.90;3.20;;;;;;;;;;4912366;29;20499;-77
2023/07/05 08:18:18;;;;;;;4.97;3.20;;;;;;;;;;4913654;29;20055;-77
2023/07/05 08:20:44;;;;;;;7.53;3.22;;;;;;;;;;4882903;29;20048;-77
2023/07/05 08:23:11;;;;;;;2.42;1.00;;;;;;;;;;4894924;29;21216;-78
2023/07/05 08:25:39;;;;;;;10.93;1.85;;;;;;;;;;4908915;29;20051;-77
2023/07/05 08:28:05;;;;;;;2.55;1.20;;;;;;;;;;4897236;29;20114;-78
2023/07/05 08:30:32;;;;;;;1.33;1.10;;;;;;;;;;4907839;29;20095;-76
2023/07/05 08:32:58;;;;;;;2.33;1.10;;;;;;;;;;4883431;29;20664;-78
2023/07/05 08:35:24;;;;;;;2.20;1.00;;;;;;;;;;4896746;29;20048;-77
2023/07/05 08:37:50;;;;;;;1.27;1.13;;;;;;;;;;4890393;29;20040;-77
2023/07/05 08:40:17;;;;;;;2.40;1.20;;;;;;;;;;4894016;29;22057;-77
2023/07/05 08:42:54;;;;;;;1.55;1.40;;;;;;;;;;4894306;29;20083;-76
2023/07/05 08:45:20;;;;;;;1.70;1.17;;;;;;;;;;4894865;29;20088;-77
2023/07/05 08:47:49;;;;;;;2.60;1.13;;;;;;;;;;4896228;29;20047;-76
2023/07/05 08:50:32;;;;;;;2.75;1.10;;;;;;;;;;4897475;29;20040;-76
2023/07/05 08:53:19;;;;;;;4.13;1.43;;;;;;;;;;4895789;29;20100;-76
2023/07/05 08:55:55;;;;;;;3.72;1.77;;;;;;;;;;4877402;29;20075;-75
2023/07/05 08:58:23;;;;;;;2.30;1.30;;;;;;;;;;4904264;29;20163;-75
2023/07/05 09:01:00;;;;;;;2.25;0.90;;;;;;;;;;4899967;29;20067;-75
2023/07/05 09:03:31;;;;;;;1.50;0.80;;;;;;;;;;4903120;29;20044;-74
2023/07/05 09:06:08;;;;;;;1.05;0.70;;;;;;;;;;4903598;29;20055;-74
2023/07/05 09:08:38;;;;;;;2.85;1.13;;;;;;;;;;4892170;29;20082;-74
2023/07/05 09:11:12;;;;;;;1.63;1.02;;;;;;;;;;4901205;29;20040;-75
2023/07/05 09:13:38;;;;;;;;;;;;;;;;;;4903749;29;20378;-75
2023/07/05 09:16:13;;;;;;;1.65;1.00;;;;;;;;;;4903810;29;19919;-75
2023/07/05 09:18:49;;;;;;;2.08;1.00;;;;;;;;;;4897635;29;20048;-75
2023/07/05 09:21:45;;;;;;;3.58;1.20;;;;;;;;;;4903086;29;20054;-75
2023/07/05 09:24:16;;;;;;;3.08;1.33;;;;;;;;;;4880482;29;20386;-76
2023/07/05 09:26:46;;;;;;;3.50;1.05;;;;;;;;;;4901267;29;20497;-75
2023/07/05 09:29:30;;;;;;;4.18;1.30;;;;;;;;;;4918534;29;20054;-74
2023/07/05 09:31:57;;;;;;;2.95;1.25;;;;;;;;;;4900697;29;20147;-75
2023/07/05 09:34:36;;;;;;;2.90;1.42;;;;;;;;;;4903016;29;20049;-75
2023/07/05 09:37:10;;;;;;;3.65;1.30;;;;;;;;;;4901987;29;20194;-75
2023/07/05 09:39:41;;;;;;;2.45;1.13;;;;;;;;;;4898817;29;20068;-75
2023/07/05 09:42:14;;;;;;;4.25;1.30;;;;;;;;;;4900769;29;20056;-75
2023/07/05 09:44:40;;;;;;;3.40;1.30;;;;;;;;;;4899470;29;20048;-75
2023/07/05 09:47:07;;;;;;;4.10;2.17;;;;;;;;;;4903412;29;20203;-75
2023/07/05 09:49:33;;;;;;;3.25;1.40;;;;;;;;;;4901420;29;20146;-74
2023/07/05 09:52:00;;;;;;;4.45;1.50;;;;;;;;;;4902569;29;20044;-75
2023/07/05 09:54:29;;;;;;;4.88;1.60;;;;;;;;;;4902779;29;20052;-75
2023/07/05 09:56:56;;;;;;;9.93;1.92;;;;;;;;;;4901448;29;20052;-74
2023/07/05 09:59:23;;;;;;;6.25;1.40;;;;;;;;;;4901091;29;20167;-74
2023/07/05 10:01:50;;;;;;;8.10;1.60;;;;;;;;;;4900603;29;20052;-76
2023/07/05 10:04:17;;;;;;;3.08;1.30;;;;;;;;;;4886792;29;20049;-73
2023/07/05 10:06:45;;;;;;;5.72;1.25;;;;;;;;;;4901005;29;20041;-75
2023/07/05 10:09:13;;;;;;;2.30;1.10;;;;;;;;;;4897533;29;20036;-75
2023/07/05 10:11:47;;;;;;;2.38;1.02;;;;;;;;;;4899369;29;20256;-74
2023/07/05 10:14:15;;;;;;;13.05;1.48;;;;;;;;;;4909903;29;20074;-75
2023/07/05 10:16:48;;;;;;;1.42;0.80;;;;;;;;;;4898476;29;20059;-75
2023/07/05 10:19:28;;;;;;;0.80;0.57;;;;;;;;;;4895886;29;20056;-75
2023/07/05 10:22:02;;;;;;;3.10;0.70;;;;;;;;;;4895854;29;20081;-74
2023/07/05 10:24:28;;;;;;;;;;;;;;;;;;4878481;29;20048;-74
2023/07/05 10:27:02;;;;;;;3.72;0.60;;;;;;;;;;4883706;29;19986;-74
2023/07/05 10:29:28;;;;;;;;;;;;;;;;;;4886221;29;20160;-73
2023/07/05 10:31:56;;;;;;;6.20;0.55;;;;;;;;;;4882461;29;19931;-73
2023/07/05 10:34:23;;;;;;;6.90;0.60;;;;;;;;;;4885051;29;20178;-72
2023/07/05 10:36:50;;;;;;;1.00;0.50;;;;;;;;;;4883374;29;20044;-74
2023/07/05 10:39:21;;;;;;;2.28;0.60;;;;;;;;;;4886802;29;20186;-74
2023/07/05 10:41:48;;;;;;;2.17;0.65;;;;;;;;;;4883467;29;22048;-73
2023/07/05 10:44:27;;;;;;;1.15;0.38;;;;;;;;;;4887702;29;20113;-73
2023/07/05 10:46:55;;;;;;;2.15;0.45;;;;;;;;;;4886080;29;20086;-73
2023/07/05 10:49:22;;;;;;;8.05;0.50;;;;;;;;;;4884399;29;20044;-73
2023/07/05 10:51:53;;;;;;;0.55;0.40;;;;;;;;;;4886486;29;20048;-73
2023/07/05 10:54:22;;;;;;;0.30;0.30;;;;;;;;;;4881425;29;20052;-74
2023/07/05 10:56:49;;;;;;;2.30;0.40;;;;;;;;;;4882958;29;20092;-72
2023/07/05 10:59:15;;;;;;;1.48;0.57;;;;;;;;;;4881730;29;20044;-73
2023/07/05 11:02:03;;;;;;;2.60;0.40;;;;;;;;;;4900125;29;20052;-73
2023/07/05 11:04:30;;;;;;;2.83;0.47;;;;;;;;;;4882738;29;20114;-73
2023/07/05 11:07:10;;;;;;;5.38;0.50;;;;;;;;;;4882730;29;20043;-73
2023/07/05 11:09:40;;;;;;;4.43;0.40;;;;;;;;;;4884052;29;20048;-73
2023/07/05 11:12:13;;;;;;;5.22;0.50;;;;;;;;;;4895793;29;20041;-73
2023/07/05 11:14:40;;;;;;;7.75;0.85;;;;;;;;;;4880854;29;20091;-77
2023/07/05 11:17:11;;;;;;;3.95;0.52;;;;;;;;;;4874318;29;20044;-72
2023/07/05 11:19:39;;;;;;;4.78;0.55;;;;;;;;;;4884061;29;20067;-73
2023/07/05 11:22:06;;;;;;;9.88;0.93;;;;;;;;;;4883015;29;20051;-73
2023/07/05 11:24:32;;;;;;;3.45;0.82;;;;;;;;;;4883021;29;20048;-73
2023/07/05 11:26:59;;;;;;;1.08;0.43;;;;;;;;;;4883004;29;20413;-73
2023/07/05 11:29:25;;;;;;;2.78;0.90;;;;;;;;;;4883395;29;20048;-73
2023/07/05 11:31:51;;;;;;;0.65;0.52;;;;;;;;;;4898349;29;20061;-72
2023/07/05 11:34:20;;;;;;;5.22;0.70;;;;;;;;;;4885155;29;20055;-73
2023/07/05 11:36:47;;;;;;;2.20;0.73;;;;;;;;;;4886270;29;20143;-73
2023/07/05 11:39:33;;;;;;;5.20;1.05;;;;;;;;;;4885746;29;20048;-73
2023/07/05 11:42:24;;;;;;;4.47;1.48;;;;;;;;;;4881622;29;20060;-72
2023/07/05 11:44:50;;;;;;;3.00;0.70;;;;;;;;;;4880525;29;20057;-73
2023/07/05 11:47:22;;;;;;;3.97;0.70;;;;;;;;;;4889190;29;20052;-72
2023/07/05 11:49:52;;;;;;;4.13;0.88;;;;;;;;;;4882653;29;20412;-73
2023/07/05 11:52:18;;;;;;;1.95;0.50;;;;;;;;;;4886400;29;20041;-80
2023/07/05 11:54:59;;;;;;;3.25;1.23;;;;;;;;;;4888868;29;20398;-80
2023/07/05 11:57:27;;;;;;;3.60;1.08;;;;;;;;;;4880033;29;20055;-82
2023/07/05 12:00:14;;;;;;;3.90;0.90;;;;;;;;;;4888308;29;20056;-75
2023/07/05 12:03:00;;;;;;;3.00;0.93;;;;;;;;;;4884457;29;20124;-73
2023/07/05 12:05:28;;;;;;;3.60;0.73;;;;;;;;;;4868289;29;20766;-72
2023/07/05 12:08:00;;;;;;;1.17;0.88;;;;;;;;;;4882882;29;20142;-74
2023/07/05 12:10:29;;;;;;;1.83;0.93;;;;;;;;;;4880231;29;20048;-73
2023/07/05 12:12:55;;;;;;;6.93;1.10;;;;;;;;;;4879435;29;20052;-73
2023/07/05 12:15:22;;;;;;;4.30;1.23;;;;;;;;;;4879879;29;20048;-74
2023/07/05 12:17:48;;;;;;;2.00;1.08;;;;;;;;;;4872415;29;20127;-74
2023/07/05 12:20:23;;;;;;;1.92;1.00;;;;;;;;;;4879786;29;20660;-74
2023/07/05 12:22:49;;;;;;;3.55;0.80;;;;;;;;;;4880879;29;20076;-72
2023/07/05 12:25:15;;;;;;;4.05;0.90;;;;;;;;;;4884520;29;20127;-73
2023/07/05 12:27:42;;;;;;;3.38;0.98;;;;;;;;;;4870432;29;20453;-74
2023/07/05 12:30:19;;;;;;;3.60;1.13;;;;;;;;;;4879521;29;20048;-73
2023/07/05 12:33:04;;;;;;;7.28;1.20;;;;;;;;;;4879846;29;20064;-73
2023/07/05 12:35:30;;;;;;;6.47;1.40;;;;;;;;;;4880606;29;20060;-76
2023/07/05 12:37:58;;;;;;;6.75;1.50;;;;;;;;;;4872452;29;20109;-75
2023/07/05 12:40:27;;;;;;;8.07;1.45;;;;;;;;;;4883709;29;20100;-73
2023/07/05 12:42:59;;;;;;;13.05;2.97;;;;;;;;;;4891209;29;20409;-75
2023/07/05 12:45:25;;;;;;;14.48;2.80;;;;;;;;;;4890051;29;20059;-75
2023/07/05 12:47:57;;;;;;;10.25;2.45;;;;;;;;;;4885158;29;20095;-78
2023/07/05 12:50:25;;;;;;;18.33;2.42;;;;;;;;;;4888167;29;20047;-75
2023/07/05 12:53:05;;;;;;;7.43;2.13;;;;;;;;;;4884008;29;20068;-73
2023/07/05 12:55:32;;;;;;;8.60;1.88;;;;;;;;;;4886238;29;20087;-73
2023/07/05 12:58:00;;;;;;;6.45;1.40;;;;;;;;;;4890782;29;20098;-73
2023/07/05 13:00:26;;;;;;;4.07;1.23;;;;;;;;;;4890631;29;20701;-73
2023/07/05 13:02:56;;;;;;;8.75;2.40;;;;;;;;;;4888715;29;20086;-72
2023/07/05 13:05:23;;;;;;;7.82;2.03;;;;;;;;;;4892611;29;20090;-75
2023/07/05 13:07:51;;;;;;;9.77;2.15;;;;;;;;;;4900743;29;20059;-76
2023/07/05 13:10:17;;;;;;;11.75;2.25;;;;;;;;;;4902341;29;20047;-75
2023/07/05 13:12:47;;;;;;;14.77;2.55;;;;;;;;;;4902780;29;20072;-75
2023/07/05 13:15:14;;;;;;;6.20;1.42;;;;;;;;;;4898633;29;20044;-75
2023/07/05 13:17:40;;;;;;;11.98;2.38;;;;;;;;;;4897235;29;20052;-76
2023/07/05 13:20:12;;;;;;;5.65;1.90;;;;;;;;;;4885518;29;20048;-74
2023/07/05 13:22:41;;;;;;;2.40;1.23;;;;;;;;;;4898840;29;20477;-74
2023/07/05 13:25:27;;;;;;;7.70;1.50;;;;;;;;;;4896372;29;20165;-74
2023/07/05 13:27:55;;;;;;;12.93;2.47;;;;;;;;;;4896517;29;20044;-73
2023/07/05 13:30:22;;;;;;;5.50;1.73;;;;;;;;;;4898115;29;20505;-73
2023/07/05 13:32:53;;;;;;;9.25;2.08;;;;;;;;;;4903546;29;20052;-75
2023/07/05 13:35:19;;;;;;;8.57;2.63;;;;;;;;;;4901568;29;20055;-74
2023/07/05 13:37:45;;;;;;;11.30;2.28;;;;;;;;;;4900867;29;20080;-74
2023/07/05 13:40:18;;;;;;;14.13;3.13;;;;;;;;;;4899751;29;20047;-74
2023/07/05 13:42:45;;;;;;;10.25;2.33;;;;;;;;;;4896674;29;20082;-75
2023/07/05 13:45:13;;;;;;;6.80;2.67;;;;;;;;;;4900594;29;20397;-76
2023/07/05 13:47:41;;;;;;;12.65;2.92;;;;;;;;;;4889780;29;20044;-75
2023/07/05 13:50:08;;;;;;;11.93;3.28;;;;;;;;;;4892067;29;20044;-75
2023/07/05 13:52:35;;;;;;;19.65;4.55;;;;;;;;;;4891875;29;21005;-75
2023/07/05 13:55:01;;;;;;;14.80;3.28;;;;;;;;;;4894540;29;20159;-77
2023/07/05 13:57:28;;;;;;;18.05;4.70;;;;;;;;;;4900156;29;20123;-76
2023/07/05 13:59:54;;;;;;;17.90;4.15;;;;;;;;;;4898608;29;20041;-76
2023/07/05 14:02:20;;;;;;;11.70;3.28;;;;;;;;;;4880201;29;20489;-75
2023/07/05 14:04:46;;;;;;;20.85;4.60;;;;;;;;;;4894309;29;20044;-74
2023/07/05 14:07:13;;;;;;;17.42;4.25;;;;;;;;;;4869181;29;20092;-74
2023/07/05 14:09:40;;;;;;;18.08;3.95;;;;;;;;;;4894257;29;20053;-75
2023/07/05 14:12:07;;;;;;;31.15;4.75;;;;;;;;;;4900152;29;20145;-74
2023/07/05 14:14:33;;;;;;;20.73;4.90;;;;;;;;;;4893325;29;20048;-74
2023/07/05 14:16:59;;;;;;;11.00;3.55;;;;;;;;;;4886875;29;20071;-75
2023/07/05 14:19:25;;;;;;;28.90;4.63;;;;;;;;;;4894165;29;20051;-75
2023/07/05 14:21:52;;;;;;;21.52;3.88;;;;;;;;;;4874491;29;20120;-74
2023/07/05 14:24:18;;;;;;;20.65;3.97;;;;;;;;;;4894906;29;20056;-75
2023/07/05 14:26:44;;;;;;;23.90;4.20;;;;;;;;;;4891421;29;20056;-75
2023/07/05 14:29:10;;;;;;;13.10;4.07;;;;;;;;;;4880949;29;20115;-75
2023/07/05 14:31:36;;;;;;;28.58;4.75;;;;;;;;;;4892386;29;20056;-76
2023/07/05 14:34:02;;;;;;;22.02;4.63;;;;;;;;;;4892921;29;20047;-75
2023/07/05 14:36:28;;;;;;;17.30;4.50;;;;;;;;;;4890688;29;20155;-76
2023/07/05 14:38:55;;;;;;;22.27;5.05;;;;;;;;;;4890435;29;20052;-75
2023/07/05 14:41:25;;;;;;;19.35;3.35;;;;;;;;;;4891598;29;20040;-75
2023/07/05 14:43:52;;;;;;;19.83;4.85;;;;;;;;;;4895843;29;20068;-74